Time;durP1;ratioP1;P1;durP2;ratioP2;P2;SDS_P1;SDS_P2;PMS_P1;PMS_P2;Temp;Humidity;BMP_temperature;BMP_pressure;BME280_temperature;BME280_humidity;BME280_pressure;Samples;Min_cycle;Max_cycle;Signal;HPM_P1;HPM_P2
2022/03/04 00:01:18;;;;;;;;;;;20.10;37.00;;;;;;5092599;28;20295;-45
2022/03/04 00:03:45;;;;;;;;;;;20.10;37.00;;;;;;5089297;28;20355;-46
2022/03/04 00:06:12;;;;;;;;;;;20.20;37.00;;;;;;5105694;28;19973;-47
2022/03/04 00:08:39;;;;;;;;;;;20.20;37.00;;;;;;5074837;28;20018;-47
2022/03/04 00:11:07;;;;;;;;;;;20.20;37.00;;;;;;5090868;28;19919;-45
2022/03/04 00:13:34;;;;;;;;;;;20.10;36.90;;;;;;5093807;28;20281;-46
2022/03/04 00:16:00;;;;;;;;;;;20.20;37.00;;;;;;5105090;28;19919;-48
2022/03/04 00:18:27;;;;;;;;;;;20.10;37.00;;;;;;5091259;28;19919;-49
2022/03/04 00:20:54;;;;;;;;;;;20.10;36.90;;;;;;5107564;28;20227;-46
2022/03/04 00:23:20;;;;;;;;;;;20.10;37.00;;;;;;5114526;27;20277;-47
2022/03/04 00:25:47;;;;;;;;;;;20.10;36.90;;;;;;5091034;28;19919;-48
2022/03/04 00:28:15;;;;;;;;;;;20.10;36.90;;;;;;5091175;28;19992;-45
2022/03/04 00:30:42;;;;;;;;;;;20.10;36.90;;;;;;5100399;28;19931;-47
2022/03/04 00:33:09;;;;;;;;;;;20.10;36.90;;;;;;5109304;28;19919;-46
2022/03/04 00:35:36;;;;;;;;;;;20.10;36.90;;;;;;5097291;28;19958;-47
2022/03/04 00:38:02;;;;;;;;;;;20.10;36.80;;;;;;5085228;28;19926;-45
2022/03/04 00:40:29;;;;;;;;;;;20.10;36.90;;;;;;5091563;28;19926;-48
2022/03/04 00:42:56;;;;;;;;;;;20.10;36.80;;;;;;5108807;28;19980;-45
2022/03/04 00:45:24;;;;;;;;;;;20.10;36.80;;;;;;5109744;28;20431;-48
2022/03/04 00:47:51;;;;;;;;;;;20.10;36.80;;;;;;5086616;28;19976;-45
2022/03/04 00:50:18;;;;;;;;;;;20.10;36.80;;;;;;5085677;28;20371;-50
2022/03/04 00:52:44;;;;;;;;;;;20.10;36.80;;;;;;5109148;28;19927;-46
2022/03/04 00:55:11;;;;;;;;;;;20.10;36.80;;;;;;5109616;28;20265;-45
2022/03/04 00:57:38;;;;;;;;;;;20.10;36.80;;;;;;5099526;28;19927;-46
2022/03/04 01:00:05;;;;;;;;;;;20.10;36.80;;;;;;5090474;28;20295;-47
2022/03/04 01:02:33;;;;;;;;;;;20.10;36.80;;;;;;5081780;28;19920;-46
2022/03/04 01:05:00;;;;;;;;;;;20.10;36.70;;;;;;5074166;28;20640;-50
2022/03/04 01:07:27;;;;;;;;;;;20.10;36.70;;;;;;5091430;28;19927;-46
2022/03/04 01:09:53;;;;;;;;;;;20.10;36.70;;;;;;5090922;28;20334;-45
2022/03/04 01:12:20;;;;;;;;;;;20.10;36.70;;;;;;5090949;28;19920;-45
2022/03/04 01:14:47;;;;;;;;;;;20.10;36.70;;;;;;5103952;28;19932;-47
2022/03/04 01:17:14;;;;;;;;;;;20.10;36.80;;;;;;5110139;28;19924;-47
2022/03/04 01:19:42;;;;;;;;;;;20.10;36.70;;;;;;5076331;28;20029;-47
2022/03/04 01:22:09;;;;;;;;;;;20.10;36.70;;;;;;5089613;28;19930;-47
2022/03/04 01:24:35;;;;;;;;;;;20.10;36.70;;;;;;5091093;28;19969;-44
2022/03/04 01:27:02;;;;;;;;;;;20.10;36.70;;;;;;5091471;28;19969;-44
2022/03/04 01:29:29;;;;;;;;;;;20.10;36.70;;;;;;5093076;28;20006;-44
2022/03/04 01:31:55;;;;;;;;;;;20.10;36.70;;;;;;5086428;28;19977;-46
2022/03/04 01:34:22;;;;;;;;;;;20.10;36.60;;;;;;5097721;28;19923;-43
2022/03/04 01:36:50;;;;;;;;;;;20.10;36.60;;;;;;5090684;28;19923;-43
2022/03/04 01:39:17;;;;;;;;;;;20.10;36.70;;;;;;5091100;28;20023;-42
2022/03/04 01:41:43;;;;;;;;;;;20.10;36.60;;;;;;5083735;28;20370;-44
2022/03/04 01:44:10;;;;;;;;;;;20.10;36.60;;;;;;5087708;28;19928;-48
2022/03/04 01:46:37;;;;;;;;;;;20.10;36.60;;;;;;5084795;28;19928;-45
2022/03/04 01:49:04;;;;;;;;;;;20.10;36.60;;;;;;5091910;28;19924;-43
2022/03/04 01:51:31;;;;;;;;;;;20.00;36.60;;;;;;5082938;28;19962;-44
2022/03/04 01:53:59;;;;;;;;;;;20.10;36.60;;;;;;5090404;28;19936;-48
2022/03/04 01:56:26;;;;;;;;;;;20.00;36.50;;;;;;5087672;28;19921;-47
2022/03/04 01:58:52;;;;;;;;;;;20.10;36.60;;;;;;5096003;28;20368;-45
2022/03/04 02:01:19;;;;;;;;;;;20.00;36.50;;;;;;5089577;28;19935;-43
2022/03/04 02:03:46;;;;;;;;;;;20.10;36.60;;;;;;5106385;28;19931;-45
2022/03/04 02:06:12;;;;;;;;;;;20.10;36.60;;;;;;5086641;28;19934;-47
2022/03/04 02:08:39;;;;;;;;;;;20.10;36.60;;;;;;5072044;28;20021;-49
2022/03/04 02:11:07;;;;;;;;;;;20.10;36.60;;;;;;5119892;27;19920;-42
2022/03/04 02:13:34;;;;;;;;;;;20.10;36.60;;;;;;5108860;28;19958;-50
2022/03/04 02:16:01;;;;;;;;;;;20.10;36.60;;;;;;5100831;28;20454;-43
2022/03/04 02:18:28;;;;;;;;;;;20.10;36.50;;;;;;5092540;28;19928;-44
2022/03/04 02:20:54;;;;;;;;;;;20.00;36.50;;;;;;5108112;28;20022;-43
2022/03/04 02:23:22;;;;;;;;;;;20.00;36.50;;;;;;5089835;28;19920;-47
2022/03/04 02:25:49;;;;;;;;;;;20.10;36.50;;;;;;5087657;28;19931;-46
2022/03/04 02:28:16;;;;;;;;;;;20.00;36.50;;;;;;5124927;27;19924;-43
2022/03/04 02:30:43;;;;;;;;;;;20.10;36.50;;;;;;5124045;27;19969;-47
2022/03/04 02:33:10;;;;;;;;;;;20.10;36.50;;;;;;5109609;28;19920;-44
2022/03/04 02:35:39;;;;;;;;;;;20.10;36.50;;;;;;5100236;28;19932;-47
2022/03/04 02:38:05;;;;;;;;;;;20.00;36.40;;;;;;5101326;28;20213;-47
2022/03/04 02:40:33;;;;;;;;;;;20.00;36.50;;;;;;5094306;28;19926;-46
2022/03/04 02:43:00;;;;;;;;;;;20.00;36.40;;;;;;5091126;28;19924;-47
2022/03/04 02:45:27;;;;;;;;;;;20.00;36.40;;;;;;5091429;28;20389;-50
2022/03/04 02:47:56;;;;;;;;;;;20.00;36.40;;;;;;5080634;28;19919;-46
2022/03/04 02:50:23;;;;;;;;;;;20.10;36.50;;;;;;5108576;28;19920;-47
2022/03/04 02:52:50;;;;;;;;;;;20.00;36.40;;;;;;5088308;28;19947;-47
2022/03/04 02:55:17;;;;;;;;;;;20.00;36.40;;;;;;5108734;28;20409;-50
2022/03/04 02:57:45;;;;;;;;;;;20.00;36.40;;;;;;5094577;28;19947;-47
2022/03/04 03:00:12;;;;;;;;;;;20.00;36.40;;;;;;5085364;28;19931;-46
2022/03/04 03:02:41;;;;;;;;;;;20.00;36.40;;;;;;5076744;28;19973;-48
2022/03/04 03:05:09;;;;;;;;;;;20.00;36.30;;;;;;5104548;28;19958;-46
2022/03/04 03:07:35;;;;;;;;;;;20.00;36.40;;;;;;5106068;28;19945;-49
2022/03/04 03:10:02;;;;;;;;;;;20.00;36.30;;;;;;5090199;28;20030;-48
2022/03/04 03:12:31;;;;;;;;;;;20.00;36.30;;;;;;5090639;28;19924;-45
2022/03/04 03:15:00;;;;;;;;;;;20.00;36.30;;;;;;5095333;28;20209;-46
2022/03/04 03:17:26;;;;;;;;;;;20.00;36.30;;;;;;5086450;28;20405;-51
2022/03/04 03:19:53;;;;;;;;;;;20.00;36.30;;;;;;5089922;28;20076;-47
2022/03/04 03:22:20;;;;;;;;;;;20.00;36.30;;;;;;5085629;28;20321;-48
2022/03/04 03:24:47;;;;;;;;;;;20.00;36.30;;;;;;5075757;28;19931;-46
2022/03/04 03:27:15;;;;;;;;;;;20.00;36.30;;;;;;5097023;28;19920;-46
2022/03/04 03:29:42;;;;;;;;;;;20.00;36.30;;;;;;5087875;28;19919;-50
2022/03/04 03:32:11;;;;;;;;;;;20.00;36.30;;;;;;5083252;28;20377;-45
2022/03/04 03:34:37;;;;;;;;;;;20.00;36.30;;;;;;5090619;28;19920;-48
2022/03/04 03:37:05;;;;;;;;;;;20.00;36.30;;;;;;5091313;28;19920;-45
2022/03/04 03:39:32;;;;;;;;;;;20.00;36.20;;;;;;5090156;28;19991;-46
2022/03/04 03:41:59;;;;;;;;;;;20.00;36.30;;;;;;5098580;28;19924;-46
2022/03/04 03:44:26;;;;;;;;;;;20.00;36.30;;;;;;5091023;28;19970;-47
2022/03/04 03:46:56;;;;;;;;;;;20.00;36.30;;;;;;5089288;28;19967;-45
2022/03/04 03:49:24;;;;;;;;;;;20.00;36.30;;;;;;5113462;28;19920;-47
2022/03/04 03:51:54;;;;;;;;;;;20.00;36.30;;;;;;5086744;28;19919;-45
2022/03/04 03:54:20;;;;;;;;;;;20.00;36.30;;;;;;5077032;28;20439;-44
2022/03/04 03:56:47;;;;;;;;;;;20.00;36.20;;;;;;5090290;28;20633;-46
2022/03/04 03:59:14;;;;;;;;;;;20.00;36.20;;;;;;5086836;28;19928;-45
2022/03/04 04:01:41;;;;;;;;;;;20.00;36.20;;;;;;5082298;28;19920;-44
2022/03/04 04:04:08;;;;;;;;;;;20.00;36.20;;;;;;5108022;28;19967;-47
2022/03/04 04:06:38;;;;;;;;;;;20.00;36.20;;;;;;5101401;28;19920;-47
2022/03/04 04:09:04;;;;;;;;;;;20.00;36.20;;;;;;5093364;28;19924;-46
2022/03/04 04:11:35;;;;;;;;;;;20.00;36.20;;;;;;5080791;28;19936;-49
2022/03/04 04:14:01;;;;;;;;;;;20.00;36.20;;;;;;5102899;28;19947;-47
2022/03/04 04:16:28;;;;;;;;;;;20.00;36.20;;;;;;5088198;28;20368;-44
2022/03/04 04:18:56;;;;;;;;;;;20.00;36.20;;;;;;5090118;28;19924;-47
2022/03/04 04:21:23;;;;;;;;;;;20.00;36.20;;;;;;5105780;28;19930;-44
2022/03/04 04:23:51;;;;;;;;;;;20.00;36.20;;;;;;5091739;28;19979;-44
2022/03/04 04:26:19;;;;;;;;;;;20.00;36.20;;;;;;5112129;28;19927;-44
2022/03/04 04:28:46;;;;;;;;;;;20.00;36.20;;;;;;5093362;28;19969;-47
2022/03/04 04:31:13;;;;;;;;;;;20.00;36.10;;;;;;5094759;28;20388;-44
2022/03/04 04:33:39;;;;;;;;;;;20.00;36.10;;;;;;5081224;28;19970;-46
2022/03/04 04:36:06;;;;;;;;;;;20.00;36.20;;;;;;5081090;28;19927;-44
2022/03/04 04:38:33;;;;;;;;;;;20.00;36.20;;;;;;5082042;28;20052;-50
2022/03/04 04:41:02;;;;;;;;;;;20.00;36.10;;;;;;5092937;28;20427;-45
2022/03/04 04:43:31;;;;;;;;;;;20.00;36.10;;;;;;5079957;28;19920;-46
2022/03/04 04:45:58;;;;;;;;;;;20.00;36.10;;;;;;5091573;28;19927;-45
2022/03/04 04:48:25;;;;;;;;;;;20.00;36.10;;;;;;5093645;28;19973;-47
2022/03/04 04:50:52;;;;;;;;;;;20.00;36.10;;;;;;5079398;28;19986;-49
2022/03/04 04:53:18;;;;;;;;;;;20.00;36.20;;;;;;5108816;28;20030;-47
2022/03/04 04:55:45;;;;;;;;;;;20.00;36.10;;;;;;5088694;28;20018;-45
2022/03/04 04:58:13;;;;;;;;;;;20.00;36.10;;;;;;5110309;28;19923;-44
2022/03/04 05:00:40;;;;;;;;;;;19.90;36.10;;;;;;5091657;28;19968;-44
2022/03/04 05:03:07;;;;;;;;;;;20.00;36.10;;;;;;5090788;28;19965;-48
2022/03/04 05:05:34;;;;;;;;;;;19.90;36.10;;;;;;5086368;28;20377;-47
2022/03/04 05:08:01;;;;;;;;;;;20.00;36.10;;;;;;5092220;28;20018;-46
2022/03/04 05:10:30;;;;;;;;;;;19.90;36.00;;;;;;5079546;28;19967;-50
2022/03/04 05:12:57;;;;;;;;;;;20.00;36.10;;;;;;5112316;27;20269;-44
2022/03/04 05:15:25;;;;;;;;;;;20.00;36.10;;;;;;5099403;28;19927;-44
2022/03/04 05:17:54;;;;;;;;;;;20.00;36.10;;;;;;5123716;27;20023;-45
2022/03/04 05:20:22;;;;;;;;;;;20.00;36.10;;;;;;5115333;27;19923;-46
2022/03/04 05:22:49;;;;;;;;;;;20.00;36.00;;;;;;5109681;28;20156;-51
2022/03/04 05:25:15;;;;;;;;;;;19.90;36.00;;;;;;5085179;28;20273;-46
2022/03/04 05:27:53;;;;;;;;;;;20.00;36.10;;;;;;5089672;28;20224;-46
2022/03/04 05:30:23;;;;;;;;;;;20.00;36.00;;;;;;5093149;28;19919;-46
2022/03/04 05:32:51;;;;;;;;;;;20.00;36.00;;;;;;5090752;28;20278;-49
2022/03/04 05:35:18;;;;;;;;;;;20.00;36.00;;;;;;5092786;28;20204;-45
2022/03/04 05:37:44;;;;;;;;;;;20.00;36.00;;;;;;5093155;28;19920;-49
2022/03/04 05:40:11;;;;;;;;;;;20.00;36.00;;;;;;5093619;28;20379;-45
2022/03/04 05:42:38;;;;;;;;;;;20.00;36.00;;;;;;5091842;28;20008;-44
2022/03/04 05:45:05;;;;;;;;;;;20.00;36.00;;;;;;5093567;28;19924;-44
2022/03/04 05:47:32;;;;;;;;;;;20.00;36.00;;;;;;5086410;28;21137;-44
2022/03/04 05:50:00;;;;;;;;;;;20.00;36.00;;;;;;5083538;28;19920;-46
2022/03/04 05:52:27;;;;;;;;;;;20.00;36.00;;;;;;5093212;28;20310;-47
2022/03/04 05:54:53;;;;;;;;;;;19.90;35.90;;;;;;5098919;28;20256;-47
2022/03/04 05:57:20;;;;;;;;;;;20.00;36.00;;;;;;5109081;28;19927;-45
2022/03/04 05:59:59;;;;;;;;;;;19.90;35.90;;;;;;5091462;28;19924;-47
2022/03/04 06:02:27;;;;;;;;;;;19.90;35.90;;;;;;5077812;28;20040;-49
2022/03/04 06:04:55;;;;;;;;;;;19.90;35.90;;;;;;5092315;28;19920;-50
2022/03/04 06:07:23;;;;;;;;;;;19.90;35.90;;;;;;5095238;28;19927;-44
2022/03/04 06:09:50;;;;;;;;;;;19.90;35.90;;;;;;5094673;28;19920;-48
2022/03/04 06:12:18;;;;;;;;;;;19.90;35.90;;;;;;5090661;28;20015;-44
2022/03/04 06:14:44;;;;;;;;;;;20.00;36.00;;;;;;5108946;28;19947;-45
2022/03/04 06:17:11;;;;;;;;;;;19.90;35.90;;;;;;5090243;28;19933;-46
2022/03/04 06:19:39;;;;;;;;;;;19.90;35.90;;;;;;5102314;28;19919;-47
2022/03/04 06:22:06;;;;;;;;;;;19.90;35.90;;;;;;5091665;28;19924;-47
2022/03/04 06:24:34;;;;;;;;;;;19.90;35.90;;;;;;5109255;28;20022;-49
2022/03/04 06:27:01;;;;;;;;;;;20.00;36.00;;;;;;5082248;28;20170;-46
2022/03/04 06:29:27;;;;;;;;;;;19.90;35.90;;;;;;5099839;28;19919;-47
2022/03/04 06:31:54;;;;;;;;;;;19.90;35.90;;;;;;5110022;28;20006;-47
2022/03/04 06:34:21;;;;;;;;;;;19.90;35.90;;;;;;5092721;28;19923;-44
2022/03/04 06:36:47;;;;;;;;;;;19.90;35.90;;;;;;5089618;28;19930;-44
2022/03/04 06:39:14;;;;;;;;;;;19.90;35.90;;;;;;5079099;28;20372;-46
2022/03/04 06:41:43;;;;;;;;;;;19.90;36.00;;;;;;5090967;28;19927;-45
2022/03/04 06:44:10;;;;;;;;;;;19.90;36.00;;;;;;5087312;28;19924;-45
2022/03/04 06:46:36;;;;;;;;;;;19.90;35.90;;;;;;5099066;28;19924;-44
2022/03/04 06:49:03;;;;;;;;;;;19.90;35.90;;;;;;5106722;28;20229;-47
2022/03/04 06:51:30;;;;;;;;;;;19.90;36.00;;;;;;5089828;28;19930;-48
2022/03/04 06:53:57;;;;;;;;;;;19.90;35.90;;;;;;5107447;28;20084;-48
2022/03/04 06:56:23;;;;;;;;;;;19.90;35.90;;;;;;5089817;28;19947;-47
2022/03/04 06:58:52;;;;;;;;;;;19.90;35.90;;;;;;5112027;27;19924;-48
2022/03/04 07:01:18;;;;;;;;;;;19.90;35.90;;;;;;5092068;28;20014;-44
2022/03/04 07:03:45;;;;;;;;;;;19.90;35.90;;;;;;5084098;28;19930;-46
2022/03/04 07:06:12;;;;;;;;;;;19.90;35.90;;;;;;5087302;28;19927;-49
2022/03/04 07:08:39;;;;;;;;;;;19.90;35.90;;;;;;5089055;28;20432;-46
2022/03/04 07:11:06;;;;;;;;;;;19.90;35.90;;;;;;5087777;28;19926;-48
2022/03/04 07:13:34;;;;;;;;;;;19.90;35.90;;;;;;5090113;28;20022;-50
2022/03/04 07:16:02;;;;;;;;;;;19.90;35.90;;;;;;5089133;28;20936;-59
2022/03/04 07:18:30;;;;;;;;;;;19.90;35.90;;;;;;5089122;28;19919;-56
2022/03/04 07:20:57;;;;;;;;;;;19.90;35.80;;;;;;5104609;28;19967;-53
2022/03/04 07:23:24;;;;;;;;;;;19.90;35.30;;;;;;5088012;28;21009;-58
2022/03/04 07:25:50;;;;;;;;;;;19.90;34.80;;;;;;5087200;28;20016;-57
2022/03/04 07:28:17;;;;;;;;;;;19.90;34.30;;;;;;5088026;28;20006;-53
2022/03/04 07:30:44;;;;;;;;;;;19.90;33.90;;;;;;5085574;28;20031;-55
2022/03/04 07:33:13;;;;;;;;;;;19.90;33.60;;;;;;5081154;28;19946;-50
2022/03/04 07:35:44;;;;;;;;;;;19.80;33.40;;;;;;5081911;28;19947;-49
2022/03/04 07:38:11;;;;;;;;;;;19.80;33.50;;;;;;5089333;28;20546;-47
2022/03/04 07:40:38;;;;;;;;;;;19.80;33.90;;;;;;5090865;28;19984;-48
2022/03/04 07:43:05;;;;;;;;;;;19.80;34.10;;;;;;5089343;28;20481;-46
2022/03/04 07:45:32;;;;;;;;;;;19.80;34.30;;;;;;5091820;28;19920;-46
2022/03/04 07:47:58;;;;;;;;;;;19.80;34.40;;;;;;5109491;28;19985;-44
2022/03/04 07:50:26;;;;;;;;;;;19.80;34.50;;;;;;5090986;28;19936;-45
2022/03/04 07:52:53;;;;;;;;;;;19.80;34.70;;;;;;5087052;28;19923;-43
2022/03/04 07:55:21;;;;;;;;;;;19.80;34.80;;;;;;5088241;28;20318;-47
2022/03/04 07:57:47;;;;;;;;;;;19.80;34.90;;;;;;5087437;28;19920;-45
2022/03/04 08:00:15;;;;;;;;;;;19.80;34.90;;;;;;5122751;28;20336;-44
2022/03/04 08:02:42;;;;;;;;;;;19.80;35.00;;;;;;5118823;28;19926;-43
2022/03/04 08:05:09;;;;;;;;;;;19.80;35.10;;;;;;5104157;28;19920;-46
2022/03/04 08:07:37;;;;;;;;;;;19.80;35.10;;;;;;5100399;28;20272;-43
2022/03/04 08:10:04;;;;;;;;;;;19.90;35.20;;;;;;5121560;28;20018;-43
2022/03/04 08:12:31;;;;;;;;;;;19.90;35.30;;;;;;5098374;28;19924;-43
2022/03/04 08:14:58;;;;;;;;;;;19.90;35.40;;;;;;5094506;28;19958;-43
2022/03/04 08:17:26;;;;;;;;;;;19.90;35.40;;;;;;5111655;28;19935;-44
2022/03/04 08:19:54;;;;;;;;;;;19.90;36.00;;;;;;5099170;28;19924;-45
2022/03/04 08:22:20;;;;;;;;;;;19.90;35.40;;;;;;5123935;27;19947;-47
2022/03/04 08:24:48;;;;;;;;;;;19.90;35.50;;;;;;5103234;28;19920;-45
2022/03/04 08:27:15;;;;;;;;;;;19.90;35.50;;;;;;5094262;28;19950;-43
2022/03/04 08:29:42;;;;;;;;;;;20.00;35.60;;;;;;5091134;28;20223;-47
2022/03/04 08:32:09;;;;;;;;;;;20.00;35.60;;;;;;5090834;28;19965;-46
2022/03/04 08:34:35;;;;;;;;;;;20.00;35.70;;;;;;5095830;28;19956;-44
2022/03/04 08:37:03;;;;;;;;;;;20.00;35.70;;;;;;5094632;28;20456;-45
2022/03/04 08:39:30;;;;;;;;;;;19.90;35.60;;;;;;5094360;28;19928;-48
2022/03/04 08:41:58;;;;;;;;;;;20.00;35.70;;;;;;5114389;28;19919;-44
2022/03/04 08:44:25;;;;;;;;;;;20.00;35.80;;;;;;5111465;28;19968;-44
2022/03/04 08:46:56;;;;;;;;;;;20.00;35.80;;;;;;5094218;28;19920;-43
2022/03/04 08:49:22;;;;;;;;;;;20.00;35.80;;;;;;5096825;28;19993;-43
2022/03/04 08:51:49;;;;;;;;;;;20.00;35.80;;;;;;5089001;28;19920;-43
2022/03/04 08:54:16;;;;;;;;;;;20.00;35.90;;;;;;5087849;28;19985;-46
2022/03/04 08:56:42;;;;;;;;;;;20.00;35.90;;;;;;5114500;28;19920;-44
2022/03/04 08:59:12;;;;;;;;;;;20.00;35.90;;;;;;5093536;28;19919;-45
2022/03/04 09:01:38;;;;;;;;;;;20.00;35.90;;;;;;5090292;28;20010;-43
2022/03/04 09:04:05;;;;;;;;;;;20.00;36.00;;;;;;5094690;28;19924;-43
2022/03/04 09:06:32;;;;;;;;;;;20.00;36.00;;;;;;5091932;28;19927;-45
2022/03/04 09:08:59;;;;;;;;;;;20.00;36.00;;;;;;5097155;28;19951;-45
2022/03/04 09:11:26;;;;;;;;;;;20.10;36.10;;;;;;5089593;28;19920;-44
2022/03/04 09:13:52;;;;;;;;;;;20.10;36.00;;;;;;5113080;28;20067;-44
2022/03/04 09:16:20;;;;;;;;;;;20.10;36.10;;;;;;5110714;28;19927;-44
2022/03/04 09:18:47;;;;;;;;;;;20.10;36.10;;;;;;5094851;28;19919;-44
2022/03/04 09:21:14;;;;;;;;;;;20.10;36.10;;;;;;5074282;28;19931;-44
2022/03/04 09:23:40;;;;;;;;;;;20.10;36.10;;;;;;5091852;28;20018;-45
2022/03/04 09:26:08;;;;;;;;;;;20.10;36.10;;;;;;5095830;28;19945;-49
2022/03/04 09:28:35;;;;;;;;;;;20.10;36.20;;;;;;5123184;27;19924;-48
2022/03/04 09:31:02;;;;;;;;;;;20.10;36.20;;;;;;5093270;28;19920;-44
2022/03/04 09:33:30;;;;;;;;;;;20.20;36.30;;;;;;5114158;27;19985;-42
2022/03/04 09:36:00;;;;;;;;;;;20.20;36.30;;;;;;5089452;28;19935;-43
2022/03/04 09:38:26;;;;;;;;;;;20.20;36.40;;;;;;5106887;28;19967;-44
2022/03/04 09:40:53;;;;;;;;;;;20.20;36.30;;;;;;5090744;28;19930;-45
2022/03/04 09:43:21;;;;;;;;;;;20.20;36.30;;;;;;5089719;28;19998;-44
2022/03/04 09:45:49;;;;;;;;;;;20.20;36.30;;;;;;5091502;28;19971;-46
2022/03/04 09:48:15;;;;;;;;;;;20.20;36.40;;;;;;5086475;28;20023;-46
2022/03/04 09:50:44;;;;;;;;;;;20.20;36.40;;;;;;5089304;28;19920;-46
2022/03/04 09:53:11;;;;;;;;;;;20.20;36.40;;;;;;5114501;27;19919;-46
2022/03/04 09:55:38;;;;;;;;;;;20.20;36.40;;;;;;5089030;28;19927;-48
2022/03/04 09:58:09;;;;;;;;;;;20.20;36.40;;;;;;5085767;28;19920;-48
2022/03/04 10:00:35;;;;;;;;;;;20.20;36.40;;;;;;5094815;28;20057;-46
2022/03/04 10:03:06;;;;;;;;;;;20.30;36.50;;;;;;5082022;28;19920;-45
2022/03/04 10:05:34;;;;;;;;;;;20.30;36.50;;;;;;5085246;28;19930;-45
2022/03/04 10:08:02;;;;;;;;;;;20.30;36.50;;;;;;5087067;28;19963;-44
2022/03/04 10:10:29;;;;;;;;;;;20.30;36.50;;;;;;5090615;28;20179;-45
2022/03/04 10:12:56;;;;;;;;;;;20.30;36.50;;;;;;5092318;28;19927;-46
2022/03/04 10:15:24;;;;;;;;;;;20.30;36.50;;;;;;5088520;28;19951;-47
2022/03/04 10:17:58;;;;;;;;;;;20.30;36.50;;;;;;5088455;28;19926;-48
2022/03/04 10:20:32;;;;;;;;;;;20.30;36.60;;;;;;5084403;28;20271;-43
2022/03/04 10:23:10;;;;;;;;;;;20.30;36.60;;;;;;5111115;27;19920;-44
2022/03/04 10:25:37;;;;;;;;;;;20.30;36.60;;;;;;5084433;28;20454;-43
2022/03/04 10:28:08;;;;;;;;;;;20.30;36.60;;;;;;5084156;28;20041;-45
2022/03/04 10:30:35;;;;;;;;;;;20.30;36.60;;;;;;5084204;28;19928;-44
2022/03/04 10:33:05;;;;;;;;;;;20.30;36.70;;;;;;5099319;28;20383;-44
2022/03/04 10:35:32;;;;;;;;;;;20.30;37.20;;;;;;5091838;28;19919;-48
2022/03/04 10:37:59;;;;;;;;;;;20.30;36.70;;;;;;5086457;28;19931;-49
2022/03/04 10:40:27;;;;;;;;;;;20.30;36.70;;;;;;5088707;28;20491;-44
2022/03/04 10:42:55;;;;;;;;;;;20.40;36.80;;;;;;5102178;28;20351;-46
2022/03/04 10:45:24;;;;;;;;;;;20.30;36.70;;;;;;5089736;28;20681;-47
2022/03/04 10:47:51;;;;;;;;;;;20.30;36.70;;;;;;5106639;28;19924;-45
2022/03/04 10:50:19;;;;;;;;;;;20.30;36.70;;;;;;5088910;28;20022;-44
2022/03/04 10:52:53;;;;;;;;;;;20.30;36.80;;;;;;5083179;28;20316;-44
2022/03/04 10:55:34;;;;;;;;;;;20.40;36.90;;;;;;5106102;28;20015;-48
2022/03/04 10:58:01;;;;;;;;;;;20.40;36.90;;;;;;5106340;28;19919;-46
2022/03/04 11:00:29;;;;;;;;;;;20.40;36.90;;;;;;5092822;28;20011;-45
2022/03/04 11:02:55;;;;;;;;;;;20.40;36.90;;;;;;5087639;28;20317;-46
2022/03/04 11:05:22;;;;;;;;;;;20.40;36.90;;;;;;5088925;28;20444;-45
2022/03/04 11:07:49;;;;;;;;;;;20.40;36.90;;;;;;5085772;28;19963;-46
2022/03/04 11:10:16;;;;;;;;;;;20.40;36.90;;;;;;5083843;28;19923;-44
2022/03/04 11:12:46;;;;;;;;;;;20.40;36.90;;;;;;5089344;28;19973;-48
2022/03/04 11:15:13;;;;;;;;;;;20.40;37.00;;;;;;5088752;28;19973;-45
2022/03/04 11:17:40;;;;;;;;;;;20.40;37.00;;;;;;5095533;28;19941;-47
2022/03/04 11:20:07;;;;;;;;;;;20.40;37.00;;;;;;5096187;28;19949;-43
2022/03/04 11:22:34;;;;;;;;;;;20.40;37.00;;;;;;5108952;28;19920;-50
2022/03/04 11:25:08;;;;;;;;;;;20.40;37.10;;;;;;5106954;28;20021;-45
2022/03/04 11:27:36;;;;;;;;;;;20.40;37.10;;;;;;5088356;28;19992;-45
2022/03/04 11:30:05;;;;;;;;;;;20.40;37.10;;;;;;5095699;27;19919;-46
2022/03/04 11:32:32;;;;;;;;;;;20.40;37.10;;;;;;5095827;28;20100;-47
2022/03/04 11:34:58;;;;;;;;;;;20.40;37.10;;;;;;5094543;28;19964;-46
2022/03/04 11:37:25;;;;;;;;;;;20.40;37.10;;;;;;5096148;28;19984;-46
2022/03/04 11:40:02;;;;;;;;;;;20.40;37.10;;;;;;5086668;28;19969;-50
2022/03/04 11:42:36;;;;;;;;;;;20.40;37.10;;;;;;5093066;28;19920;-44
2022/03/04 11:45:04;;;;;;;;;;;20.50;37.20;;;;;;5088566;28;19958;-50
2022/03/04 11:47:37;;;;;;;;;;;20.40;37.20;;;;;;5097122;28;19923;-47
2022/03/04 11:50:19;;;;;;;;;;;20.40;37.20;;;;;;5088501;28;19941;-46
2022/03/04 11:52:46;;;;;;;;;;;20.40;37.20;;;;;;5100805;27;19990;-52
2022/03/04 11:55:27;;;;;;;;;;;20.40;37.20;;;;;;5089160;28;19936;-48
2022/03/04 11:58:03;;;;;;;;;;;20.50;37.40;;;;;;5116286;27;19931;-44
2022/03/04 12:00:38;;;;;;;;;;;20.50;37.40;;;;;;5096777;28;19959;-44
2022/03/04 12:03:12;;;;;;;;;;;20.50;37.40;;;;;;5094202;28;19920;-48
2022/03/04 12:05:39;;;;;;;;;;;20.50;37.40;;;;;;5086996;28;20344;-45
2022/03/04 12:08:07;;;;;;;;;;;20.50;37.40;;;;;;5089858;28;19981;-44
2022/03/04 12:10:36;;;;;;;;;;;20.50;37.40;;;;;;5098320;28;20361;-44
2022/03/04 12:13:03;;;;;;;;;;;20.50;37.40;;;;;;5122562;27;19920;-48
2022/03/04 12:15:30;;;;;;;;;;;20.50;37.40;;;;;;5118980;27;19926;-44
2022/03/04 12:17:59;;;;;;;;;;;20.50;37.40;;;;;;5092318;28;20272;-55
2022/03/04 12:20:27;;;;;;;;;;;20.50;37.50;;;;;;5084618;28;20257;-51
2022/03/04 12:22:57;;;;;;;;;;;20.50;37.50;;;;;;5086647;28;20388;-57
2022/03/04 12:25:23;;;;;;;;;;;20.50;37.20;;;;;;5107561;28;19932;-52
2022/03/04 12:27:50;;;;;;;;;;;20.40;36.80;;;;;;5085230;28;19974;-51
2022/03/04 12:30:18;;;;;;;;;;;20.50;36.70;;;;;;5091713;28;19934;-50
2022/03/04 12:32:48;;;;;;;;;;;20.40;36.40;;;;;;5111305;27;20532;-50
2022/03/04 12:35:17;;;;;;;;;;;20.40;36.40;;;;;;5087993;28;19920;-55
2022/03/04 12:37:43;;;;;;;;;;;20.40;36.30;;;;;;5091503;28;20148;-47
2022/03/04 12:40:10;;;;;;;;;;;20.40;36.30;;;;;;5085746;28;19926;-52
2022/03/04 12:42:37;;;;;;;;;;;20.40;36.10;;;;;;5083247;28;19973;-52
2022/03/04 12:45:08;;;;;;;;;;;20.30;36.00;;;;;;5111306;28;19920;-48
2022/03/04 12:47:36;;;;;;;;;;;20.40;36.00;;;;;;5081778;28;19939;-53
2022/03/04 12:50:02;;;;;;;;;;;20.30;35.80;;;;;;5105695;28;20002;-49
2022/03/04 12:52:30;;;;;;;;;;;20.30;35.70;;;;;;5105556;28;19980;-52
2022/03/04 12:55:02;;;;;;;;;;;20.30;35.70;;;;;;5089093;28;20006;-48
2022/03/04 12:57:28;;;;;;;;;;;20.30;35.60;;;;;;5088658;28;19919;-49
2022/03/04 12:59:55;;;;;;;;;;;20.30;35.50;;;;;;5107648;28;20237;-59
2022/03/04 13:02:22;;;;;;;;;;;20.30;35.40;;;;;;5099597;28;20321;-47
2022/03/04 13:04:58;;;;;;;;;;;20.20;35.30;;;;;;5087276;28;19920;-56
2022/03/04 13:07:25;;;;;;;;;;;20.30;35.40;;;;;;5105377;28;19981;-52
2022/03/04 13:09:55;;;;;;;;;;;20.20;35.30;;;;;;5085444;28;19973;-52
2022/03/04 13:12:22;;;;;;;;;;;20.20;35.30;;;;;;5107735;28;20365;-51
2022/03/04 13:14:48;;;;;;;;;;;20.20;35.20;;;;;;5101878;28;20018;-48
2022/03/04 13:17:16;;;;;;;;;;;20.20;35.20;;;;;;5081603;28;20352;-54
2022/03/04 13:19:43;;;;;;;;;;;20.20;35.20;;;;;;5102560;28;19923;-50
2022/03/04 13:22:10;;;;;;;;;;;20.20;35.20;;;;;;5110158;27;19924;-49
2022/03/04 13:24:39;;;;;;;;;;;20.20;35.10;;;;;;5082998;28;19954;-52
2022/03/04 13:27:08;;;;;;;;;;;20.20;35.10;;;;;;5082550;28;20276;-53
2022/03/04 13:29:35;;;;;;;;;;;20.20;35.00;;;;;;5084416;28;19966;-53
2022/03/04 13:32:06;;;;;;;;;;;20.20;35.00;;;;;;5084827;28;19931;-54
2022/03/04 13:34:33;;;;;;;;;;;20.10;34.90;;;;;;5099263;28;20345;-51
2022/03/04 13:37:02;;;;;;;;;;;20.20;35.00;;;;;;5101234;28;19927;-50
2022/03/04 13:39:29;;;;;;;;;;;20.20;35.00;;;;;;5097446;28;20245;-56
2022/03/04 13:42:29;;;;;;;;;;;20.10;34.90;;;;;;5087529;28;19924;-47
2022/03/04 13:44:56;;;;;;;;;;;20.20;35.10;;;;;;5089935;28;20293;-46
2022/03/04 13:47:36;;;;;;;;;;;20.10;35.30;;;;;;5111215;27;19977;-48
2022/03/04 13:50:04;;;;;;;;;;;20.10;35.50;;;;;;5088779;28;19932;-46
2022/03/04 13:52:33;;;;;;;;;;;20.10;35.60;;;;;;5104561;28;19923;-44
2022/03/04 13:55:00;;;;;;;;;;;20.10;35.80;;;;;;5085723;28;19959;-48
2022/03/04 13:57:32;;;;;;;;;;;20.20;35.90;;;;;;5110289;28;19953;-50
2022/03/04 14:00:00;;;;;;;;;;;20.20;36.00;;;;;;5081403;28;20216;-45
2022/03/04 14:02:27;;;;;;;;;;;20.20;36.10;;;;;;5108902;28;19926;-48
2022/03/04 14:04:54;;;;;;;;;;;20.20;36.20;;;;;;5085083;28;19927;-46
2022/03/04 14:07:21;;;;;;;;;;;20.20;36.20;;;;;;5085423;28;20019;-50
2022/03/04 14:09:50;;;;;;;;;;;20.20;36.30;;;;;;5093403;28;20192;-48
2022/03/04 14:12:18;;;;;;;;;;;20.30;36.40;;;;;;5111293;27;20263;-48
2022/03/04 14:14:47;;;;;;;;;;;20.30;36.40;;;;;;5086959;28;20290;-46
2022/03/04 14:17:14;;;;;;;;;;;20.30;36.50;;;;;;5088558;27;20021;-44
2022/03/04 14:19:41;;;;;;;;;;;20.30;36.50;;;;;;5087680;28;20102;-47